Saint John, WA

2:55 AM PST on January 28, 2015 (GMT -0800)
APRSWXNET Thornton WA US | Change Station
CLOSE
Current Station
Personal Weather Station
Location: Thornton, WA
Elevation: 2378 ft
Nearby Weather Stations

Elev 2378 ft 47.07 °N, 117.43 °W | Updated 25 minutes ago

Fog
Fog
33 °F
Feels Like 33 °F
N
3
Wind Variable Wind from SSW
Gusts 8.0 mph

Today
High -- | Low -- °F
--% Chance of Precip.
Yesterday
High -- | Low -- °F
Precip. -- in
7:20 AM 4:46 PM
Waxing Gibbous, 63% visible
Pressure 30.23 in
Visibility 1.2 miles
Clouds Overcast 200 ft
Windchill 33 °F
Dew Point 32 °F
Humidity 97%
Rainfall 0.00 in
Snow Depth Not available.
UV 0 out of 12
Pollen 1.40 out of 12
Air Quality Not available.
Flu Activity Not available.
SPECI KPUW 281042Z AUTO 25008KT 1 1/4SM BR OVC002 04/03 A3023 RMK AO2 T00390033

More Conditions Fewer Conditions

Pressure 30.23 in
Visibility 1.2 miles
Clouds Overcast 200 ft
Windchill 33 °F
Dew Point 32 °F
Humidity 97%
Rainfall 0.00 in
Snow Depth Not available.
UV 0 out of 12
Pollen 1.40 out of 12
Air Quality Not available.
Flu Activity Not available.
SPECI KPUW 281042Z AUTO 25008KT 1 1/4SM BR OVC002 04/03 A3023 RMK AO2 T00390033

More Conditions Fewer Conditions

10-Day Weather Forecast

Almanac

Astronomy

Jan. 28, 2015 Rise Set
Actual Time
Civil Twilight
Nautical Twilight
Astronomical Twilight
Moon
Length of Visible Light
Length of Day
Tomorrow will be .
, % of the Moon is Illuminated

Today's Extremes

State Highs State Lows

Community

WunderPhotos

Upload Photos

1,791,121 photos uploaded!

WunderBlogs® & News

Nearby

Air Quality

  Air Quality AQ Index Pollutant
Not available.

Snow Depth

Station Depth Elevation

Earthquake Activity

City Distance Mag. Time & Date
Minimum magnitude displayed is 2.5.

Coastal Water Temperatures

Place Temperature

Nearby Weather Stations